createdAt,value
2018-10-06T00:00:01.986Z,7.50
2018-10-06T00:02:30.054Z,9.30
2018-10-06T00:04:58.240Z,8.53
2018-10-06T00:07:26.801Z,8.57
2018-10-06T00:09:55.585Z,9.07
2018-10-06T00:12:23.617Z,8.33
2018-10-06T00:15:03.323Z,8.97
2018-10-06T00:17:32.022Z,8.23
2018-10-06T00:20:00.206Z,8.13
2018-10-06T00:22:28.746Z,8.10
2018-10-06T00:24:56.847Z,8.93
2018-10-06T00:27:26.495Z,8.77
2018-10-06T00:29:55.762Z,8.27
2018-10-06T00:32:24.180Z,9.30
2018-10-06T00:34:52.237Z,8.57
2018-10-06T00:37:20.366Z,8.00
2018-10-06T00:39:48.392Z,9.83
2018-10-06T00:42:16.492Z,10.43
2018-10-06T00:44:44.476Z,8.97
2018-10-06T00:47:25.371Z,8.43
2018-10-06T00:49:53.395Z,9.00
2018-10-06T00:52:21.378Z,9.53
2018-10-06T00:54:49.673Z,9.50
2018-10-06T00:57:17.940Z,9.20
2018-10-06T00:59:45.877Z,9.90
2018-10-06T01:02:14.020Z,9.47
2018-10-06T01:04:42.305Z,8.93
2018-10-06T01:07:10.613Z,10.30
2018-10-06T01:09:38.888Z,8.73
2018-10-06T01:12:07.064Z,11.30
2018-10-06T01:14:35.216Z,10.37
2018-10-06T01:17:03.539Z,8.57
2018-10-06T01:19:32.678Z,9.40
2018-10-06T01:22:01.016Z,9.17
2018-10-06T01:24:29.329Z,10.00
2018-10-06T01:26:57.469Z,10.17
2018-10-06T01:29:25.652Z,9.73
2018-10-06T01:31:53.644Z,10.13
2018-10-06T01:34:21.750Z,10.70
2018-10-06T01:36:49.733Z,10.73
2018-10-06T01:39:17.708Z,8.73
2018-10-06T01:41:45.701Z,10.13
2018-10-06T01:44:14.307Z,9.90
2018-10-06T01:46:43.032Z,8.80
2018-10-06T01:49:11.096Z,9.60
2018-10-06T01:51:39.349Z,9.30
2018-10-06T01:54:08.124Z,10.20
2018-10-06T01:56:36.532Z,10.00
2018-10-06T01:59:05.959Z,11.03
2018-10-06T02:01:36.469Z,10.27
2018-10-06T02:04:06.838Z,8.83
2018-10-06T02:06:35.379Z,9.80
2018-10-06T02:09:05.504Z,9.43
2018-10-06T02:11:34.413Z,9.93
2018-10-06T02:14:03.774Z,9.23
2018-10-06T02:16:33.762Z,8.00
2018-10-06T02:21:35.901Z,10.00
2018-10-06T02:24:04.378Z,8.53
2018-10-06T02:26:33.135Z,10.03
2018-10-06T02:29:01.951Z,9.17
2018-10-06T02:31:30.767Z,8.60
2018-10-06T02:34:00.053Z,9.40
2018-10-06T02:36:28.207Z,8.50
2018-10-06T02:38:56.624Z,9.43
2018-10-06T02:41:24.654Z,9.20
2018-10-06T02:43:52.701Z,8.80
2018-10-06T02:46:20.772Z,9.70
2018-10-06T02:48:48.810Z,8.67
2018-10-06T02:51:16.834Z,8.10
2018-10-06T02:53:44.825Z,7.97
2018-10-06T02:56:13.248Z,8.17
2018-10-06T02:58:41.326Z,8.60
2018-10-06T03:01:10.369Z,10.03
2018-10-06T03:03:38.538Z,7.83
2018-10-06T03:06:06.807Z,8.07
2018-10-06T03:08:36.552Z,9.17
2018-10-06T03:11:04.837Z,7.90
2018-10-06T03:13:33.345Z,9.00
2018-10-06T03:16:01.935Z,8.53
2018-10-06T03:18:30.202Z,8.10
2018-10-06T03:20:59.092Z,9.20
2018-10-06T03:23:27.374Z,8.23
2018-10-06T03:25:56.545Z,7.67
2018-10-06T03:28:24.535Z,8.77
2018-10-06T03:30:52.493Z,7.00
2018-10-06T03:33:20.461Z,6.83
2018-10-06T03:35:48.583Z,7.50
2018-10-06T03:38:17.178Z,6.80
2018-10-06T03:40:45.230Z,6.27
2018-10-06T03:43:13.236Z,5.73
2018-10-06T03:45:43.270Z,6.80
2018-10-06T03:48:11.599Z,5.90
2018-10-06T03:50:39.922Z,5.93
2018-10-06T03:53:08.055Z,6.30
2018-10-06T03:55:36.245Z,5.47
2018-10-06T03:58:04.573Z,6.40
2018-10-06T04:00:32.766Z,5.83
2018-10-06T04:03:00.888Z,5.63
2018-10-06T04:05:28.998Z,6.30
2018-10-06T04:07:57.228Z,4.90
2018-10-06T04:10:25.382Z,4.70
2018-10-06T04:12:53.398Z,5.30
2018-10-06T04:15:21.382Z,5.07
2018-10-06T04:17:49.345Z,4.90
2018-10-06T04:20:17.357Z,5.10
2018-10-06T04:22:45.838Z,5.20
2018-10-06T04:25:13.807Z,4.60
2018-10-06T04:27:42.067Z,5.00
2018-10-06T04:30:10.320Z,4.83
2018-10-06T04:32:38.490Z,4.37
2018-10-06T04:35:06.806Z,4.70
2018-10-06T04:37:35.117Z,4.33
2018-10-06T04:40:03.520Z,4.57
2018-10-06T04:42:31.984Z,5.40
2018-10-06T04:45:00.118Z,4.93
2018-10-06T04:47:28.185Z,5.60
2018-10-06T04:49:56.503Z,4.80
2018-10-06T04:52:24.473Z,5.30
2018-10-06T04:54:52.471Z,4.63
2018-10-06T04:57:21.074Z,5.07
2018-10-06T04:59:49.022Z,4.60
2018-10-06T05:02:16.994Z,5.37
2018-10-06T05:04:45.079Z,4.43
2018-10-06T05:07:13.090Z,4.47
2018-10-06T05:09:41.195Z,4.03
2018-10-06T05:12:09.921Z,4.77
2018-10-06T05:14:38.187Z,5.30
2018-10-06T05:17:08.476Z,3.83
2018-10-06T05:19:37.695Z,4.90
2018-10-06T05:22:06.183Z,4.70
2018-10-06T05:24:34.597Z,3.83
2018-10-06T05:27:02.625Z,4.73
2018-10-06T05:29:31.868Z,3.40
2018-10-06T05:32:02.997Z,4.00
2018-10-06T05:34:32.087Z,3.83
2018-10-06T05:37:00.110Z,4.10
2018-10-06T05:39:28.431Z,4.70
2018-10-06T05:41:56.467Z,4.00
2018-10-06T05:44:24.806Z,4.10
2018-10-06T05:46:52.811Z,5.10
2018-10-06T05:49:20.808Z,4.17
2018-10-06T05:51:48.768Z,4.30
2018-10-06T05:54:16.880Z,4.37
2018-10-06T05:56:44.933Z,4.90
2018-10-06T05:59:13.235Z,4.90
2018-10-06T06:01:41.301Z,5.10
2018-10-06T06:04:09.678Z,4.70
2018-10-06T06:06:42.630Z,4.50
2018-10-06T06:09:10.771Z,4.33
2018-10-06T06:11:40.370Z,4.50
2018-10-06T06:14:08.452Z,4.73
2018-10-06T06:16:37.634Z,4.23
2018-10-06T06:19:06.499Z,5.43
2018-10-06T06:21:36.688Z,4.60
2018-10-06T06:24:05.251Z,5.10
2018-10-06T06:26:35.959Z,4.63
2018-10-06T06:29:05.375Z,4.93
2018-10-06T06:31:36.815Z,5.40
2018-10-06T06:34:05.192Z,5.13
2018-10-06T06:36:33.326Z,4.97
2018-10-06T06:39:01.935Z,4.87
2018-10-06T06:41:30.027Z,5.67
2018-10-06T06:43:59.363Z,6.60
2018-10-06T06:46:27.693Z,6.53
2018-10-06T06:48:55.886Z,5.90
2018-10-06T06:51:24.005Z,6.03
2018-10-06T06:53:52.116Z,5.53
2018-10-06T06:56:20.439Z,5.67
2018-10-06T06:58:48.658Z,6.07
2018-10-06T07:01:17.149Z,4.63
2018-10-06T07:03:46.615Z,5.30
2018-10-06T07:06:14.664Z,6.67
2018-10-06T07:08:42.765Z,5.27
2018-10-06T07:11:11.551Z,5.50
2018-10-06T07:13:41.949Z,8.47
2018-10-06T07:16:10.647Z,6.57
2018-10-06T07:18:39.018Z,6.70
2018-10-06T07:21:07.770Z,7.10
2018-10-06T07:23:36.019Z,7.40
2018-10-06T07:26:04.438Z,7.90
2018-10-06T07:28:33.564Z,7.50
2018-10-06T07:31:02.130Z,7.87
2018-10-06T07:33:31.141Z,5.93
2018-10-06T07:35:59.446Z,6.93
2018-10-06T07:38:29.706Z,6.57
2018-10-06T07:40:57.895Z,6.63
2018-10-06T07:43:26.939Z,6.53
2018-10-06T07:45:55.186Z,6.97
2018-10-06T07:48:27.979Z,7.87
2018-10-06T07:50:56.562Z,9.40
2018-10-06T07:53:24.763Z,6.50
2018-10-06T07:55:52.783Z,6.97
2018-10-06T07:58:20.999Z,6.23
2018-10-06T08:00:50.495Z,6.90
2018-10-06T08:03:18.751Z,7.07
2018-10-06T08:05:47.193Z,7.07
2018-10-06T08:08:15.773Z,6.70
2018-10-06T08:10:44.044Z,6.60
2018-10-06T08:13:12.377Z,7.37
2018-10-06T08:15:40.629Z,7.40
2018-10-06T08:18:13.221Z,6.47
2018-10-06T08:20:41.702Z,6.10
2018-10-06T08:23:10.169Z,5.17
2018-10-06T08:25:39.333Z,5.40
2018-10-06T08:28:07.863Z,5.90
2018-10-06T08:30:36.805Z,5.53
2018-10-06T08:33:05.309Z,6.03
2018-10-06T08:35:34.441Z,5.13
2018-10-06T08:38:03.091Z,4.87
2018-10-06T08:40:32.786Z,5.03
2018-10-06T08:43:02.097Z,5.40
2018-10-06T08:45:31.106Z,4.80
2018-10-06T08:47:59.727Z,4.53
2018-10-06T08:50:28.073Z,5.73
2018-10-06T08:52:56.820Z,4.90
2018-10-06T08:55:25.108Z,6.33
2018-10-06T08:57:53.837Z,4.13
2018-10-06T09:00:24.843Z,3.70
2018-10-06T09:02:53.909Z,4.67
2018-10-06T09:05:22.062Z,5.20
2018-10-06T09:07:50.297Z,5.00
2018-10-06T09:10:18.669Z,4.50
2018-10-06T09:12:46.923Z,5.60
2018-10-06T09:15:15.241Z,4.70
2018-10-06T09:17:43.672Z,4.00
2018-10-06T09:20:13.112Z,4.53
2018-10-06T09:22:41.596Z,3.97
2018-10-06T09:25:10.038Z,4.33
2018-10-06T09:27:38.482Z,4.70
2018-10-06T09:30:07.007Z,4.90
2018-10-06T09:32:35.657Z,5.57
2018-10-06T09:35:10.176Z,4.67
2018-10-06T09:37:38.679Z,4.00
2018-10-06T09:40:09.748Z,3.73
2018-10-06T09:42:38.181Z,4.30
2018-10-06T09:45:06.909Z,5.00
2018-10-06T09:47:36.236Z,5.30
2018-10-06T09:50:06.898Z,4.27
2018-10-06T09:52:35.617Z,4.60
2018-10-06T09:55:07.857Z,5.43
2018-10-06T09:57:36.409Z,3.80
2018-10-06T10:00:04.982Z,4.50
2018-10-06T10:02:42.607Z,3.83
2018-10-06T10:05:16.359Z,3.47
2018-10-06T10:07:47.963Z,4.13
2018-10-06T10:10:17.603Z,4.33
2018-10-06T10:12:46.072Z,4.43
2018-10-06T10:15:14.111Z,3.70
2018-10-06T10:20:20.772Z,3.77
2018-10-06T10:22:48.925Z,4.33
2018-10-06T10:25:17.066Z,4.80
2018-10-06T10:27:45.242Z,4.77
2018-10-06T10:30:13.783Z,4.27
2018-10-06T10:32:41.891Z,3.80
2018-10-06T10:35:10.427Z,4.37
2018-10-06T10:37:39.401Z,4.57
2018-10-06T10:40:07.977Z,4.03
2018-10-06T10:42:36.555Z,4.40
2018-10-06T10:45:05.427Z,3.90
2018-10-06T10:47:34.563Z,4.20
2018-10-06T10:50:03.470Z,4.20
2018-10-06T10:52:33.241Z,3.40
2018-10-06T10:55:01.733Z,3.07
2018-10-06T10:57:30.417Z,3.70
2018-10-06T10:59:58.890Z,3.40
2018-10-06T11:02:27.566Z,3.50
2018-10-06T11:04:56.298Z,3.40
2018-10-06T11:07:24.840Z,3.83
2018-10-06T11:09:55.623Z,3.17
2018-10-06T11:12:23.960Z,3.23
2018-10-06T11:14:52.037Z,3.47
2018-10-06T11:17:31.656Z,3.70
2018-10-06T11:20:00.034Z,3.30
2018-10-06T11:22:28.317Z,3.13
2018-10-06T11:24:57.559Z,2.80
2018-10-06T11:27:26.209Z,3.10
2018-10-06T11:29:54.614Z,3.70
2018-10-06T11:32:23.286Z,2.40
2018-10-06T11:34:51.763Z,4.10
2018-10-06T11:37:20.115Z,2.77
2018-10-06T11:42:33.142Z,2.23
2018-10-06T11:45:02.593Z,1.90
2018-10-06T11:47:32.964Z,2.77
2018-10-06T11:50:02.027Z,2.13
2018-10-06T11:52:30.870Z,2.57
2018-10-06T11:57:40.511Z,2.40
2018-10-06T12:02:52.075Z,2.43
2018-10-06T12:05:26.931Z,2.07
2018-10-06T12:07:55.994Z,2.03
2018-10-06T12:10:24.345Z,2.10
2018-10-06T12:12:56.564Z,2.60
2018-10-06T12:18:17.650Z,2.70
2018-10-06T12:20:45.850Z,2.37
2018-10-06T12:23:14.049Z,2.07
2018-10-06T12:25:42.614Z,2.23
2018-10-06T12:28:11.175Z,3.07
2018-10-06T12:30:49.284Z,2.83
2018-10-06T12:33:17.935Z,2.33
2018-10-06T12:35:46.329Z,2.50
2018-10-06T12:38:24.996Z,2.00
2018-10-06T12:43:35.868Z,2.10
2018-10-06T12:46:04.404Z,2.80
2018-10-06T12:51:11.778Z,2.43
2018-10-06T12:58:55.610Z,2.80
2018-10-06T13:01:23.790Z,2.47
2018-10-06T13:03:52.987Z,2.33
2018-10-06T13:09:03.808Z,2.60
2018-10-06T13:11:32.741Z,2.40
2018-10-06T13:14:02.526Z,2.70
2018-10-06T13:16:33.721Z,2.53
2018-10-06T13:19:02.476Z,2.53
2018-10-06T13:21:36.264Z,2.50
2018-10-06T13:24:15.916Z,2.70
2018-10-06T13:26:44.082Z,2.80
2018-10-06T13:31:55.282Z,3.23
2018-10-06T13:34:32.139Z,2.10
2018-10-06T13:37:00.878Z,2.33
2018-10-06T13:39:29.405Z,2.50
2018-10-06T13:41:57.729Z,2.67
2018-10-06T13:46:59.103Z,2.50
2018-10-06T13:49:27.556Z,3.03
2018-10-06T13:51:56.094Z,2.67
2018-10-06T13:54:33.729Z,2.00
2018-10-06T13:57:03.079Z,2.77
2018-10-06T13:59:31.946Z,2.27
2018-10-06T14:02:00.390Z,2.10
2018-10-06T14:04:30.254Z,2.07
2018-10-06T14:06:59.728Z,2.73
2018-10-06T14:09:28.209Z,2.83
2018-10-06T14:11:56.665Z,2.43
2018-10-06T14:14:24.975Z,2.13
2018-10-06T14:16:54.364Z,2.70
2018-10-06T14:19:22.809Z,3.10
2018-10-06T14:21:51.196Z,2.20
2018-10-06T14:24:19.295Z,2.53
2018-10-06T14:26:50.063Z,2.40
2018-10-06T14:29:18.301Z,2.07
2018-10-06T14:31:46.841Z,2.00
2018-10-06T14:34:15.505Z,1.90
2018-10-06T14:36:44.450Z,1.83
2018-10-06T14:39:13.338Z,1.90
2018-10-06T14:41:42.570Z,2.70
2018-10-06T14:44:11.110Z,2.63
2018-10-06T14:49:20.684Z,2.67
2018-10-06T14:51:49.097Z,2.40
2018-10-06T14:54:23.984Z,2.80
2018-10-06T14:56:52.506Z,2.33
2018-10-06T14:59:31.491Z,2.47
2018-10-06T15:02:00.532Z,2.60
2018-10-06T15:04:29.838Z,2.40
2018-10-06T15:07:02.872Z,3.60
2018-10-06T15:09:31.705Z,2.80
2018-10-06T15:12:00.465Z,1.73
2018-10-06T15:14:29.821Z,1.90
2018-10-06T15:16:58.209Z,2.57
2018-10-06T15:19:27.440Z,2.60
2018-10-06T15:21:55.642Z,3.90
2018-10-06T15:24:24.113Z,2.57
2018-10-06T15:26:52.552Z,2.30
2018-10-06T15:29:32.220Z,2.77
2018-10-06T15:32:01.319Z,2.97
2018-10-06T15:34:29.706Z,3.30
2018-10-06T15:37:02.961Z,3.33
2018-10-06T15:39:32.210Z,4.57
2018-10-06T15:42:01.421Z,3.20
2018-10-06T15:44:34.388Z,4.30
2018-10-06T15:52:22.391Z,4.07
2018-10-06T15:54:50.630Z,3.80
2018-10-06T15:57:18.886Z,4.40
2018-10-06T15:59:47.285Z,3.53
2018-10-06T16:02:15.914Z,3.60
2018-10-06T16:07:34.387Z,3.67
2018-10-06T16:12:47.005Z,3.93
2018-10-06T16:15:15.621Z,4.30
2018-10-06T16:17:44.070Z,4.50
2018-10-06T16:20:13.070Z,4.87
2018-10-06T16:22:41.846Z,3.43
2018-10-06T16:25:10.230Z,4.00
2018-10-06T16:30:20.717Z,4.90
2018-10-06T16:33:00.690Z,5.00
2018-10-06T16:35:38.785Z,5.23
2018-10-06T16:40:47.898Z,4.43
2018-10-06T16:43:16.296Z,4.80
2018-10-06T16:45:44.533Z,5.00
2018-10-06T16:50:59.233Z,5.23
2018-10-06T16:53:34.542Z,6.23
2018-10-06T16:58:47.101Z,4.60
2018-10-06T17:03:53.973Z,6.80
2018-10-06T17:06:22.602Z,6.13
2018-10-06T17:08:51.721Z,6.43
2018-10-06T17:11:32.488Z,5.40
2018-10-06T17:14:01.619Z,6.13
2018-10-06T17:21:56.835Z,6.63
2018-10-06T17:24:25.718Z,6.30
2018-10-06T17:26:53.883Z,5.63
2018-10-06T17:29:22.203Z,6.10
2018-10-06T17:31:56.141Z,7.10
2018-10-06T17:37:00.341Z,7.17
2018-10-06T17:39:31.905Z,6.53
2018-10-06T17:42:00.138Z,7.03
2018-10-06T17:47:11.510Z,6.50
2018-10-06T17:49:41.254Z,6.73
2018-10-06T17:52:10.253Z,6.47
2018-10-06T17:54:39.404Z,6.60
2018-10-06T17:59:46.374Z,7.70
2018-10-06T18:02:14.880Z,7.10
2018-10-06T18:04:43.278Z,6.70
2018-10-06T18:09:57.347Z,6.60
2018-10-06T18:12:34.869Z,7.50
2018-10-06T18:15:04.339Z,6.53
2018-10-06T18:20:37.668Z,7.87
2018-10-06T18:25:59.506Z,7.73
2018-10-06T18:28:28.014Z,8.47
2018-10-06T18:30:57.622Z,8.67
2018-10-06T18:33:26.294Z,8.70
2018-10-06T18:35:54.662Z,7.50
2018-10-06T18:38:34.098Z,7.33
2018-10-06T18:41:04.485Z,7.77
2018-10-06T18:43:33.096Z,8.07
2018-10-06T18:48:35.717Z,7.30
2018-10-06T18:51:04.360Z,8.37
2018-10-06T18:53:33.474Z,7.87
2018-10-06T18:56:03.813Z,8.50
2018-10-06T18:58:34.646Z,8.20
2018-10-06T19:01:06.409Z,6.50
2018-10-06T19:03:35.918Z,7.67
2018-10-06T19:06:06.133Z,5.77
2018-10-06T19:11:17.490Z,6.90
2018-10-06T19:13:46.211Z,8.50
2018-10-06T19:16:14.933Z,9.00
2018-10-06T19:18:43.569Z,10.33
2018-10-06T19:21:12.328Z,9.87
2018-10-06T19:23:41.241Z,11.10
2018-10-06T19:26:10.675Z,10.20
2018-10-06T19:28:39.559Z,10.20
2018-10-06T19:31:08.087Z,10.37
2018-10-06T19:33:37.050Z,9.80
2018-10-06T19:36:05.906Z,9.20
2018-10-06T19:38:34.862Z,9.50
2018-10-06T19:41:04.806Z,9.87
2018-10-06T19:43:34.518Z,9.13
2018-10-06T19:48:55.102Z,9.20
2018-10-06T19:51:23.595Z,11.00
2018-10-06T19:56:37.291Z,9.43
2018-10-06T20:04:31.713Z,7.93
2018-10-06T20:07:01.294Z,7.53
2018-10-06T20:09:30.250Z,6.80
2018-10-06T20:14:44.544Z,5.43
2018-10-06T20:20:04.560Z,5.03
2018-10-06T20:22:33.739Z,5.20
2018-10-06T20:25:03.394Z,6.17
2018-10-06T20:30:07.060Z,4.70
2018-10-06T20:32:35.387Z,6.33
2018-10-06T20:35:04.890Z,6.13
2018-10-06T20:37:33.816Z,6.47
2018-10-06T20:45:18.313Z,6.50
2018-10-06T20:47:55.428Z,5.97
2018-10-06T20:50:24.255Z,6.03
2018-10-06T20:52:52.678Z,5.80
2018-10-06T20:55:20.830Z,6.60
2018-10-06T20:57:53.111Z,6.60
2018-10-06T21:00:22.231Z,5.70
2018-10-06T21:02:57.333Z,5.23
2018-10-06T21:05:25.720Z,5.10
2018-10-06T21:07:54.343Z,5.00
2018-10-06T21:10:22.526Z,5.30
2018-10-06T21:12:50.797Z,5.27
2018-10-06T21:15:33.176Z,5.50
2018-10-06T21:18:04.906Z,4.77
2018-10-06T21:20:34.512Z,5.07
2018-10-06T21:23:04.377Z,5.70
2018-10-06T21:28:19.934Z,5.23
2018-10-06T21:31:01.653Z,5.10
2018-10-06T21:33:35.306Z,5.27
2018-10-06T21:36:04.477Z,5.73
2018-10-06T21:43:52.560Z,5.00
2018-10-06T21:46:20.671Z,5.63
2018-10-06T21:48:48.888Z,6.13
2018-10-06T21:51:16.937Z,5.60
2018-10-06T21:53:44.990Z,5.30
2018-10-06T21:56:13.386Z,5.17
2018-10-06T21:58:51.446Z,5.13
2018-10-06T22:03:57.365Z,5.60
2018-10-06T22:06:31.334Z,6.27
2018-10-06T22:09:00.996Z,5.23
2018-10-06T22:11:29.835Z,4.50
2018-10-06T22:14:02.629Z,4.20
2018-10-06T22:16:32.872Z,4.30
2018-10-06T22:19:05.002Z,3.93
2018-10-06T22:21:34.667Z,4.03
2018-10-06T22:24:04.152Z,4.90
2018-10-06T22:26:33.047Z,5.43
2018-10-06T22:29:03.049Z,4.57
2018-10-06T22:31:32.215Z,4.93
2018-10-06T22:36:42.533Z,5.30
2018-10-06T22:39:11.230Z,6.30
2018-10-06T22:41:40.342Z,7.23
2018-10-06T22:44:09.125Z,6.33
2018-10-06T22:49:12.357Z,6.53
2018-10-06T22:51:40.983Z,6.80
2018-10-06T22:54:09.450Z,6.90
2018-10-06T22:59:19.559Z,6.73
2018-10-06T23:01:57.084Z,7.33
2018-10-06T23:04:25.329Z,6.93
2018-10-06T23:06:59.530Z,6.70
2018-10-06T23:09:27.764Z,7.30
2018-10-06T23:11:58.820Z,6.60
2018-10-06T23:14:27.092Z,6.57
2018-10-06T23:16:55.543Z,8.43
2018-10-06T23:19:24.600Z,7.03
2018-10-06T23:24:30.603Z,7.97
2018-10-06T23:26:59.389Z,7.73
2018-10-06T23:29:27.507Z,8.23
2018-10-06T23:31:56.928Z,10.87
2018-10-06T23:34:25.312Z,8.37
2018-10-06T23:36:53.578Z,8.03
2018-10-06T23:39:21.617Z,8.40
2018-10-06T23:41:49.898Z,6.90
2018-10-06T23:44:17.953Z,7.07
2018-10-06T23:46:47.202Z,7.50
2018-10-06T23:49:15.336Z,6.40
2018-10-06T23:51:43.591Z,6.53
2018-10-06T23:54:12.261Z,6.33
2018-10-06T23:56:40.424Z,6.60
2018-10-06T23:59:08.766Z,7.13
